createdAt,value
2022-08-14T00:02:27.173Z,100434.00
2022-08-14T00:04:55.644Z,100423.00
2022-08-14T00:07:23.389Z,100430.00
2022-08-14T00:10:01.843Z,100419.00
2022-08-14T00:12:48.065Z,100415.00
2022-08-14T00:15:43.332Z,100410.00
2022-08-14T00:18:30.703Z,100413.00
2022-08-14T00:21:05.283Z,100408.00
2022-08-14T00:23:42.068Z,100408.00
2022-08-14T00:26:21.829Z,100409.00
2022-08-14T00:28:52.483Z,100412.00
2022-08-14T00:31:34.832Z,100402.00
2022-08-14T00:34:36.436Z,100412.00
2022-08-14T00:36:59.876Z,100413.00
2022-08-14T00:39:29.597Z,100410.00
2022-08-14T00:41:58.085Z,100407.00
2022-08-14T00:44:31.773Z,100401.00
2022-08-14T00:47:03.591Z,100407.00
2022-08-14T00:49:38.138Z,100405.00
2022-08-14T00:52:17.688Z,100399.00
2022-08-14T00:54:58.289Z,100401.00
2022-08-14T00:57:31.023Z,100401.00
2022-08-14T01:00:00.719Z,100399.00
2022-08-14T01:02:31.690Z,100394.00
2022-08-14T01:05:07.807Z,100388.00
2022-08-14T01:07:47.333Z,100381.00
2022-08-14T01:10:22.217Z,100379.00
2022-08-14T01:12:50.817Z,100376.00
2022-08-14T01:15:31.568Z,100372.00
2022-08-14T01:18:27.595Z,100375.00
2022-08-14T01:21:09.625Z,100374.00
2022-08-14T01:23:47.062Z,100364.00
2022-08-14T01:26:23.250Z,100361.00
2022-08-14T01:29:05.916Z,100359.00
2022-08-14T01:31:55.602Z,100364.00
2022-08-14T01:35:17.179Z,100360.00
2022-08-14T01:37:14.061Z,100358.00
2022-08-14T01:39:44.500Z,100359.00
2022-08-14T01:42:31.511Z,100362.00
2022-08-14T01:45:00.090Z,100354.00
2022-08-14T01:47:27.628Z,100355.00
2022-08-14T01:50:07.791Z,100359.00
2022-08-14T01:52:58.823Z,100348.00
2022-08-14T01:55:32.590Z,100347.00
2022-08-14T01:58:20.027Z,100350.00
2022-08-14T02:00:55.424Z,100348.00
2022-08-14T02:03:30.224Z,100348.00
2022-08-14T02:06:03.794Z,100356.00
2022-08-14T02:08:52.996Z,100355.00
2022-08-14T02:11:25.589Z,100353.00
2022-08-14T02:14:07.405Z,100350.00
2022-08-14T02:16:40.577Z,100356.00
2022-08-14T02:19:16.024Z,100355.00
2022-08-14T02:21:50.290Z,100346.00
2022-08-14T02:24:39.752Z,100353.00
2022-08-14T02:28:22.779Z,100344.00
2022-08-14T02:30:02.074Z,100343.00
2022-08-14T02:32:37.111Z,100337.00
2022-08-14T02:35:18.003Z,100343.00
2022-08-14T02:37:50.321Z,100337.00
2022-08-14T02:40:19.771Z,100338.00
2022-08-14T02:42:54.738Z,100331.00
2022-08-14T02:45:33.395Z,100325.00
2022-08-14T02:48:10.401Z,100333.00
2022-08-14T02:50:55.508Z,100326.00
2022-08-14T02:53:23.167Z,100322.00
2022-08-14T02:55:50.929Z,100318.00
2022-08-14T02:58:30.607Z,100311.00
2022-08-14T03:01:01.631Z,100310.00
2022-08-14T03:03:31.498Z,100310.00
2022-08-14T03:06:00.780Z,100309.00
2022-08-14T03:08:32.352Z,100308.00
2022-08-14T03:11:09.675Z,100305.00
2022-08-14T03:13:44.183Z,100306.00
2022-08-14T03:16:20.109Z,100297.00
2022-08-14T03:18:59.843Z,100295.00
2022-08-14T03:21:30.284Z,100299.00
2022-08-14T03:24:09.049Z,100301.00
2022-08-14T03:26:50.017Z,100300.00
2022-08-14T03:29:29.536Z,100299.00
2022-08-14T03:31:57.703Z,100301.00
2022-08-14T03:34:47.859Z,100301.00
2022-08-14T03:37:39.446Z,100293.00
2022-08-14T03:40:01.747Z,100300.00
2022-08-14T03:42:36.116Z,100305.00
2022-08-14T03:45:25.467Z,100302.00
2022-08-14T03:47:58.918Z,100303.00
2022-08-14T03:50:31.695Z,100296.00
2022-08-14T03:53:02.553Z,100292.00
2022-08-14T03:55:31.550Z,100293.00
2022-08-14T03:58:02.235Z,100294.00
2022-08-14T04:00:43.934Z,100286.00
2022-08-14T04:03:18.245Z,100280.00
2022-08-14T04:05:51.102Z,100282.00
2022-08-14T04:08:22.841Z,100278.00
2022-08-14T04:11:00.976Z,100275.00
2022-08-14T04:13:35.552Z,100272.00
2022-08-14T04:16:13.070Z,100276.00
2022-08-14T04:18:43.761Z,100274.00
2022-08-14T04:21:14.867Z,100264.00
2022-08-14T04:23:56.889Z,100259.00
2022-08-14T04:26:42.377Z,100263.00
2022-08-14T04:29:16.105Z,100265.00
2022-08-14T04:33:00.715Z,100261.00
2022-08-14T04:34:36.589Z,100266.00
2022-08-14T04:37:25.384Z,100262.00
2022-08-14T04:40:15.150Z,100252.00
2022-08-14T04:43:01.754Z,100252.00
2022-08-14T04:45:41.892Z,100247.00
2022-08-14T04:48:38.962Z,100247.00
2022-08-14T04:51:05.451Z,100240.00
2022-08-14T04:53:41.083Z,100247.00
2022-08-14T04:56:33.798Z,100232.00
2022-08-14T04:59:10.158Z,100235.00
2022-08-14T05:01:47.732Z,100229.00
2022-08-14T05:04:19.897Z,100232.00
2022-08-14T05:06:54.176Z,100227.00
2022-08-14T05:09:24.504Z,100227.00
2022-08-14T05:11:56.568Z,100227.00
2022-08-14T05:14:47.150Z,100226.00
2022-08-14T05:17:31.998Z,100232.00
2022-08-14T05:21:04.781Z,100226.00
2022-08-14T05:22:59.986Z,100229.00
2022-08-14T05:25:31.049Z,100230.00
2022-08-14T05:28:23.813Z,100233.00
2022-08-14T05:30:57.091Z,100230.00
2022-08-14T05:33:28.683Z,100224.00
2022-08-14T05:36:02.605Z,100223.00
2022-08-14T05:38:41.372Z,100222.00
2022-08-14T05:41:18.375Z,100222.00
2022-08-14T05:43:48.238Z,100217.00
2022-08-14T05:46:27.004Z,100215.00
2022-08-14T05:48:59.408Z,100214.00
2022-08-14T05:51:28.776Z,100211.00
2022-08-14T05:54:01.575Z,100208.00
2022-08-14T05:56:40.791Z,100203.00
2022-08-14T05:59:11.293Z,100205.00
2022-08-14T06:01:38.938Z,100203.00
2022-08-14T06:04:06.932Z,100205.00
2022-08-14T06:06:38.419Z,100196.00
2022-08-14T06:09:10.037Z,100195.00
2022-08-14T06:11:38.064Z,100185.00
2022-08-14T06:14:12.498Z,100184.00
2022-08-14T06:16:49.575Z,100185.00
2022-08-14T06:19:23.068Z,100189.00
2022-08-14T06:21:58.499Z,100192.00
2022-08-14T06:24:30.669Z,100195.00
2022-08-14T06:27:06.333Z,100191.00
2022-08-14T06:29:38.638Z,100186.00
2022-08-14T06:32:38.478Z,100182.00
2022-08-14T06:35:09.215Z,100184.00
2022-08-14T06:37:47.910Z,100179.00
2022-08-14T06:40:27.045Z,100178.00
2022-08-14T06:43:00.101Z,100171.00
2022-08-14T06:45:34.980Z,100167.00
2022-08-14T06:48:06.169Z,100169.00
2022-08-14T06:50:34.386Z,100160.00
2022-08-14T06:53:02.359Z,100160.00
2022-08-14T06:55:30.885Z,100166.00
2022-08-14T06:57:59.416Z,100170.00
2022-08-14T07:00:31.552Z,100170.00
2022-08-14T07:03:19.478Z,100168.00
2022-08-14T07:05:57.661Z,100162.00
2022-08-14T07:08:31.360Z,100161.00
2022-08-14T07:11:04.458Z,100152.00
2022-08-14T07:13:33.638Z,100158.00
2022-08-14T07:16:05.600Z,100158.00
2022-08-14T07:18:35.545Z,100169.00
2022-08-14T07:21:05.631Z,100171.00
2022-08-14T07:23:40.142Z,100168.00
2022-08-14T07:26:13.802Z,100163.00
2022-08-14T07:28:43.416Z,100154.00
2022-08-14T07:31:12.729Z,100155.00
2022-08-14T07:33:45.499Z,100159.00
2022-08-14T07:36:27.189Z,100170.00
2022-08-14T07:39:00.319Z,100172.00
2022-08-14T07:41:31.411Z,100173.00
2022-08-14T07:44:32.140Z,100162.00
2022-08-14T07:46:51.299Z,100158.00
2022-08-14T07:49:20.208Z,100150.00
2022-08-14T07:51:49.661Z,100159.00
2022-08-14T07:54:23.490Z,100159.00
2022-08-14T07:57:06.400Z,100163.00
2022-08-14T07:59:44.301Z,100161.00
2022-08-14T08:02:17.046Z,100152.00
2022-08-14T08:04:53.134Z,100162.00
2022-08-14T08:07:23.565Z,100165.00
2022-08-14T08:09:56.242Z,100165.00
2022-08-14T08:12:29.632Z,100169.00
2022-08-14T08:15:03.167Z,100163.00
2022-08-14T08:17:42.658Z,100163.00
2022-08-14T08:20:27.778Z,100167.00
2022-08-14T08:23:06.021Z,100166.00
2022-08-14T08:25:40.898Z,100166.00
2022-08-14T08:28:22.039Z,100160.00
2022-08-14T08:30:56.571Z,100165.00
2022-08-14T08:33:32.067Z,100167.00
2022-08-14T08:36:07.972Z,100161.00
2022-08-14T08:39:18.871Z,100159.00
2022-08-14T08:41:24.970Z,100165.00
2022-08-14T08:44:05.320Z,100166.00
2022-08-14T08:46:35.759Z,100168.00
2022-08-14T08:49:04.512Z,100161.00
2022-08-14T08:51:42.805Z,100161.00
2022-08-14T08:54:18.343Z,100156.00
2022-08-14T08:56:52.059Z,100147.00
2022-08-14T08:59:31.614Z,100149.00
2022-08-14T09:02:05.447Z,100154.00
2022-08-14T09:04:45.592Z,100143.00
2022-08-14T09:07:27.822Z,100157.00
2022-08-14T09:09:59.039Z,100143.00
2022-08-14T09:12:43.064Z,100143.00
2022-08-14T09:15:14.670Z,100144.00
2022-08-14T09:17:44.181Z,100137.00
2022-08-14T09:20:19.333Z,100137.00
2022-08-14T09:22:55.921Z,100140.00
2022-08-14T09:25:58.632Z,100137.00
2022-08-14T09:28:12.871Z,100135.00
2022-08-14T09:30:54.595Z,100140.00
2022-08-14T09:33:32.350Z,100132.00
2022-08-14T09:36:26.931Z,100120.00
2022-08-14T09:39:45.952Z,100114.00
2022-08-14T09:42:36.599Z,100123.00
2022-08-14T09:45:16.717Z,100128.00
2022-08-14T09:47:56.949Z,100130.00
2022-08-14T09:50:34.003Z,100122.00
2022-08-14T09:53:06.045Z,100118.00
2022-08-14T09:55:58.737Z,100117.00
2022-08-14T09:58:45.168Z,100114.00
2022-08-14T10:01:14.922Z,100110.00
2022-08-14T10:03:58.478Z,100100.00
2022-08-14T10:06:29.805Z,100113.00
2022-08-14T10:09:12.135Z,100110.00
2022-08-14T10:11:58.737Z,100096.00
2022-08-14T10:14:36.031Z,100096.00
2022-08-14T10:17:07.186Z,100091.00
2022-08-14T10:19:48.603Z,100080.00
2022-08-14T10:23:12.581Z,100083.00
2022-08-14T10:25:15.432Z,100077.00
2022-08-14T10:27:46.811Z,100077.00
2022-08-14T10:30:22.478Z,100080.00
2022-08-14T10:32:51.530Z,100073.00
2022-08-14T10:35:23.010Z,100075.00
2022-08-14T10:37:53.507Z,100080.00
2022-08-14T10:40:44.303Z,100070.00
2022-08-14T10:43:26.352Z,100076.00
2022-08-14T10:46:59.253Z,100070.00
2022-08-14T10:49:04.084Z,100074.00
2022-08-14T10:51:41.896Z,100075.00
2022-08-14T10:54:16.801Z,100064.00
2022-08-14T10:57:20.880Z,100064.00
2022-08-14T11:00:00.988Z,100074.00
2022-08-14T11:02:54.218Z,100063.00
2022-08-14T11:05:26.652Z,100059.00
2022-08-14T11:08:01.245Z,100054.00
2022-08-14T11:11:00.309Z,100053.00
2022-08-14T11:13:31.161Z,100051.00
2022-08-14T11:16:01.921Z,100057.00
2022-08-14T11:18:36.038Z,100056.00
2022-08-14T11:21:09.577Z,100055.00
2022-08-14T11:23:41.169Z,100042.00
2022-08-14T11:26:14.395Z,100038.00
2022-08-14T11:28:49.607Z,100033.00
2022-08-14T11:31:24.221Z,100023.00
2022-08-14T11:33:58.395Z,100022.00
2022-08-14T11:36:35.171Z,100021.00
2022-08-14T11:39:35.120Z,100027.00
2022-08-14T11:42:07.646Z,100020.00
2022-08-14T11:45:00.143Z,100014.00
2022-08-14T11:47:35.088Z,100014.00
2022-08-14T11:50:33.677Z,100003.00
2022-08-14T11:53:08.022Z,100000.00
2022-08-14T11:55:39.738Z,99992.00
2022-08-14T11:58:11.330Z,99992.00
2022-08-14T12:00:52.549Z,99998.00
2022-08-14T12:03:37.743Z,99989.00
2022-08-14T12:06:29.248Z,99986.00
2022-08-14T12:09:04.114Z,99996.00
2022-08-14T12:11:44.143Z,99983.00
2022-08-14T12:14:30.118Z,99968.00
2022-08-14T12:17:11.767Z,99980.00
2022-08-14T12:19:51.274Z,99981.00
2022-08-14T12:22:33.943Z,99981.00
2022-08-14T12:25:10.049Z,99975.00
2022-08-14T12:27:53.567Z,99975.00
2022-08-14T12:30:43.174Z,99966.00
2022-08-14T12:33:32.974Z,99975.00
2022-08-14T12:36:10.563Z,99974.00
2022-08-14T12:38:43.397Z,99970.00
2022-08-14T12:41:24.144Z,99967.00
2022-08-14T12:44:04.604Z,99960.00
2022-08-14T12:46:36.507Z,99955.00
2022-08-14T12:49:16.555Z,99950.00
2022-08-14T12:51:56.599Z,99947.00
2022-08-14T12:54:28.121Z,99937.00
2022-08-14T12:57:20.407Z,99929.00
2022-08-14T12:59:50.670Z,99929.00
2022-08-14T13:02:35.988Z,99923.00
2022-08-14T13:05:04.683Z,99925.00
2022-08-14T13:07:35.559Z,99927.00
2022-08-14T13:10:47.316Z,99926.00
2022-08-14T13:13:13.612Z,99921.00
2022-08-14T13:15:48.416Z,99906.00
2022-08-14T13:18:28.273Z,99894.00
2022-08-14T13:21:02.098Z,99892.00
2022-08-14T13:23:36.457Z,99888.00
2022-08-14T13:26:08.812Z,99885.00
2022-08-14T13:29:02.161Z,99882.00
2022-08-14T13:31:34.415Z,99874.00
2022-08-14T13:34:04.353Z,99869.00
2022-08-14T13:36:54.343Z,99861.00
2022-08-14T13:39:23.952Z,99855.00
2022-08-14T13:41:55.389Z,99850.00
2022-08-14T13:44:28.991Z,99838.00
2022-08-14T13:46:58.560Z,99853.00
2022-08-14T13:49:26.433Z,99833.00
2022-08-14T13:52:02.199Z,99840.00
2022-08-14T13:54:34.533Z,99839.00
2022-08-14T13:57:05.152Z,99842.00
2022-08-14T13:59:39.251Z,99841.00
2022-08-14T14:02:10.177Z,99830.00
2022-08-14T14:04:49.545Z,99826.00
2022-08-14T14:07:23.602Z,99836.00
2022-08-14T14:09:56.398Z,99826.00
2022-08-14T14:12:38.302Z,99820.00
2022-08-14T14:15:17.585Z,99819.00
2022-08-14T14:17:48.072Z,99810.00
2022-08-14T14:20:34.676Z,99806.00
2022-08-14T14:23:11.699Z,99800.00
2022-08-14T14:25:51.292Z,99796.00
2022-08-14T14:28:32.525Z,99788.00
2022-08-14T14:31:06.102Z,99787.00
2022-08-14T14:33:48.995Z,99785.00
2022-08-14T14:36:26.707Z,99782.00
2022-08-14T14:38:56.422Z,99783.00
2022-08-14T14:41:27.181Z,99777.00
2022-08-14T14:44:09.059Z,99781.00
2022-08-14T14:46:42.028Z,99780.00
2022-08-14T14:49:15.073Z,99780.00
2022-08-14T14:51:46.835Z,99776.00
2022-08-14T14:54:30.986Z,99776.00
2022-08-14T14:57:02.439Z,99777.00
2022-08-14T14:59:35.799Z,99777.00
2022-08-14T15:02:08.019Z,99777.00
2022-08-14T15:04:39.107Z,99771.00
2022-08-14T15:07:12.347Z,99772.00
2022-08-14T15:09:41.119Z,99760.00
2022-08-14T15:12:34.403Z,99757.00
2022-08-14T15:15:08.809Z,99752.00
2022-08-14T15:17:41.466Z,99744.00
2022-08-14T15:20:16.876Z,99738.00
2022-08-14T15:22:51.256Z,99746.00
2022-08-14T15:25:21.868Z,99746.00
2022-08-14T15:27:54.655Z,99742.00
2022-08-14T15:30:24.355Z,99736.00
2022-08-14T15:33:00.077Z,99730.00
2022-08-14T15:35:29.701Z,99727.00
2022-08-14T15:38:08.083Z,99721.00
2022-08-14T15:40:41.102Z,99721.00
2022-08-14T15:43:12.792Z,99719.00
2022-08-14T15:45:42.078Z,99720.00
2022-08-14T15:48:12.623Z,99720.00
2022-08-14T15:50:50.898Z,99711.00
2022-08-14T15:53:22.616Z,99707.00
2022-08-14T15:55:54.898Z,99706.00
2022-08-14T15:58:27.223Z,99705.00
2022-08-14T16:01:26.468Z,99698.00
2022-08-14T16:04:01.603Z,99706.00
2022-08-14T16:06:33.554Z,99697.00
2022-08-14T16:09:10.705Z,99699.00
2022-08-14T16:11:47.397Z,99693.00
2022-08-14T16:14:22.029Z,99697.00
2022-08-14T16:17:00.069Z,99694.00
2022-08-14T16:19:44.021Z,99698.00
2022-08-14T16:22:58.122Z,99679.00
2022-08-14T16:25:04.390Z,99682.00
2022-08-14T16:27:40.777Z,99679.00
2022-08-14T16:30:25.037Z,99673.00
2022-08-14T16:32:59.287Z,99670.00
2022-08-14T16:35:55.792Z,99661.00
2022-08-14T16:38:45.985Z,99665.00
2022-08-14T16:41:27.421Z,99668.00
2022-08-14T16:44:05.238Z,99658.00
2022-08-14T16:46:44.687Z,99670.00
2022-08-14T16:49:17.505Z,99659.00
2022-08-14T16:51:46.695Z,99653.00
2022-08-14T16:54:35.003Z,99651.00
2022-08-14T16:57:23.925Z,99641.00
2022-08-14T16:59:59.840Z,99643.00
2022-08-14T17:02:39.063Z,99645.00
2022-08-14T17:05:27.076Z,99643.00
2022-08-14T17:08:32.343Z,99646.00
2022-08-14T17:10:56.635Z,99647.00
2022-08-14T17:13:57.728Z,99644.00
2022-08-14T17:16:24.980Z,99640.00
2022-08-14T17:19:00.769Z,99641.00
2022-08-14T17:21:38.383Z,99632.00
2022-08-14T17:24:57.290Z,99633.00
2022-08-14T17:27:05.176Z,99634.00
2022-08-14T17:29:54.455Z,99640.00
2022-08-14T17:32:55.444Z,99633.00
2022-08-14T17:35:58.159Z,99631.00
2022-08-14T17:38:33.669Z,99630.00
2022-08-14T17:41:24.033Z,99631.00
2022-08-14T17:44:20.204Z,99634.00
2022-08-14T17:47:07.166Z,99629.00
2022-08-14T17:49:45.285Z,99624.00
2022-08-14T17:52:33.827Z,99626.00
2022-08-14T17:55:07.665Z,99621.00
2022-08-14T17:57:40.921Z,99621.00
2022-08-14T18:00:15.499Z,99621.00
2022-08-14T18:02:50.798Z,99611.00
2022-08-14T18:05:22.854Z,99615.00
2022-08-14T18:08:32.319Z,99617.00
2022-08-14T18:10:55.548Z,99618.00
2022-08-14T18:13:49.829Z,99626.00
2022-08-14T18:16:19.638Z,99620.00
2022-08-14T18:18:51.092Z,99618.00
2022-08-14T18:21:40.014Z,99621.00
2022-08-14T18:24:28.392Z,99620.00
2022-08-14T18:27:09.310Z,99624.00
2022-08-14T18:29:54.897Z,99623.00
2022-08-14T18:32:32.265Z,99623.00
2022-08-14T18:35:13.158Z,99619.00
2022-08-14T18:37:55.578Z,99623.00
2022-08-14T18:40:34.986Z,99620.00
2022-08-14T18:43:06.021Z,99624.00
2022-08-14T18:45:41.306Z,99637.00
2022-08-14T18:48:33.208Z,99628.00
2022-08-14T18:51:45.724Z,99630.00
2022-08-14T18:54:34.319Z,99632.00
2022-08-14T18:57:08.897Z,99631.00
2022-08-14T18:59:43.370Z,99634.00
2022-08-14T19:02:42.319Z,99630.00
2022-08-14T19:05:11.363Z,99643.00
2022-08-14T19:07:40.787Z,99642.00
2022-08-14T19:10:17.050Z,99642.00
2022-08-14T19:12:53.880Z,99649.00
2022-08-14T19:15:56.538Z,99655.00
2022-08-14T19:18:29.455Z,99649.00
2022-08-14T19:21:13.059Z,99650.00
2022-08-14T19:23:44.011Z,99655.00
2022-08-14T19:26:36.632Z,99652.00
2022-08-14T19:29:37.955Z,99655.00
2022-08-14T19:32:41.054Z,99653.00
2022-08-14T19:35:24.434Z,99652.00
2022-08-14T19:37:57.400Z,99651.00
2022-08-14T19:40:39.412Z,99650.00
2022-08-14T19:43:10.970Z,99651.00
2022-08-14T19:45:39.571Z,99650.00
2022-08-14T19:48:15.648Z,99647.00
2022-08-14T19:50:46.450Z,99648.00
2022-08-14T19:53:17.220Z,99647.00
2022-08-14T19:56:02.439Z,99646.00
2022-08-14T19:58:54.449Z,99644.00
2022-08-14T20:01:36.935Z,99638.00
2022-08-14T20:04:45.332Z,99641.00
2022-08-14T20:07:01.859Z,99639.00
2022-08-14T20:11:12.638Z,99642.00
2022-08-14T20:12:36.396Z,99634.00
2022-08-14T20:15:18.180Z,99635.00
2022-08-14T20:17:52.915Z,99629.00
2022-08-14T20:20:32.216Z,99644.00
2022-08-14T20:23:10.966Z,99634.00
2022-08-14T20:25:56.418Z,99631.00
2022-08-14T20:28:35.694Z,99637.00
2022-08-14T20:31:18.849Z,99630.00
2022-08-14T20:34:08.012Z,99624.00
2022-08-14T20:37:09.622Z,99628.00
2022-08-14T20:39:54.626Z,99630.00
2022-08-14T20:42:43.805Z,99623.00
2022-08-14T20:45:24.687Z,99625.00
2022-08-14T20:48:07.295Z,99624.00
2022-08-14T20:50:44.833Z,99623.00
2022-08-14T20:53:35.855Z,99625.00
2022-08-14T20:56:28.409Z,99624.00
2022-08-14T20:58:57.997Z,99615.00
2022-08-14T21:01:32.483Z,99618.00
2022-08-14T21:04:05.113Z,99621.00
2022-08-14T21:07:23.920Z,99615.00
2022-08-14T21:10:05.108Z,99619.00
2022-08-14T21:12:35.014Z,99620.00
2022-08-14T21:15:10.157Z,99621.00
2022-08-14T21:17:43.376Z,99627.00
2022-08-14T21:20:26.304Z,99624.00
2022-08-14T21:23:00.508Z,99622.00
2022-08-14T21:25:31.902Z,99616.00
2022-08-14T21:28:04.795Z,99617.00
2022-08-14T21:30:51.767Z,99613.00
2022-08-14T21:33:24.860Z,99615.00
2022-08-14T21:35:55.993Z,99608.00
2022-08-14T21:38:33.558Z,99601.00
2022-08-14T21:41:43.498Z,99609.00
2022-08-14T21:44:18.189Z,99606.00
2022-08-14T21:46:54.320Z,99609.00
2022-08-14T21:49:38.288Z,99602.00
2022-08-14T21:52:51.490Z,99606.00
2022-08-14T21:55:09.598Z,99609.00
2022-08-14T21:57:56.283Z,99599.00
2022-08-14T22:00:43.580Z,99596.00
2022-08-14T22:03:19.472Z,99595.00
2022-08-14T22:05:57.633Z,99593.00
2022-08-14T22:08:27.367Z,99596.00
2022-08-14T22:10:56.810Z,99581.00
2022-08-14T22:13:32.141Z,99582.00
2022-08-14T22:16:02.244Z,99582.00
2022-08-14T22:18:31.189Z,99586.00
2022-08-14T22:21:00.621Z,99583.00
2022-08-14T22:23:33.712Z,99574.00
2022-08-14T22:26:03.379Z,99580.00
2022-08-14T22:28:33.004Z,99574.00
2022-08-14T22:31:10.907Z,99578.00
2022-08-14T22:33:40.352Z,99565.00
2022-08-14T22:36:33.702Z,99572.00
2022-08-14T22:39:03.307Z,99566.00
2022-08-14T22:41:42.173Z,99563.00
2022-08-14T22:44:19.880Z,99566.00
2022-08-14T22:46:49.556Z,99560.00
2022-08-14T22:50:30.726Z,99560.00
2022-08-14T22:52:32.681Z,99557.00
2022-08-14T22:54:59.873Z,99551.00
2022-08-14T22:57:37.732Z,99544.00
2022-08-14T23:00:25.438Z,99546.00
2022-08-14T23:03:02.861Z,99542.00
2022-08-14T23:05:40.155Z,99543.00
2022-08-14T23:08:58.020Z,99540.00
2022-08-14T23:11:07.116Z,99534.00
2022-08-14T23:13:35.239Z,99537.00
2022-08-14T23:16:08.650Z,99526.00
2022-08-14T23:18:39.101Z,99529.00
2022-08-14T23:21:12.087Z,99521.00
2022-08-14T23:23:41.498Z,99522.00
2022-08-14T23:26:48.304Z,99531.00
2022-08-14T23:28:59.185Z,99538.00
2022-08-14T23:31:34.516Z,99537.00
2022-08-14T23:34:06.577Z,99535.00
2022-08-14T23:36:54.629Z,99528.00
2022-08-14T23:39:29.949Z,99521.00
2022-08-14T23:42:07.605Z,99521.00
2022-08-14T23:44:38.868Z,99513.00
2022-08-14T23:47:12.064Z,99513.00
2022-08-14T23:50:03.335Z,99506.00
2022-08-14T23:52:50.099Z,99495.00
2022-08-14T23:55:25.703Z,99501.00
2022-08-14T23:57:58.552Z,99489.00
